Terminal Aerodrome Forecast
Issued by NWS

Home | Current Version | Previous Version | Text Only | Print | Product List | Glossary Off
Versions: 1 2 3 4 5 6 7 8 9 10 11 12 13 14 15 16 17 18 19 20 21 22 23 24

000
FTUS43 KABR 300300 AAB
TAFATY
TAF AMD
KATY 300312Z 3003/3024 09015KT P6SM SCT015
      TEMPO 3003/3005 OVC015
     FM300700 13019KT P6SM OVC008=

USA.gov is the U.S. government's official web portal to all federal, state and local government web resources and services.